Terminal Aerodrome Forecast
Issued by NWS

Home | Current Version | Previous Version | Text Only | Print | Product List | Glossary On
Versions: 1 2 3 4 5 6 7 8 9 10 11 12 13 14 15
000
FTUS42 KGSP 061728
TAFHKY
TAF
KHKY 061728Z 0618/0718 33012G22KT P6SM SCT050
     FM062300 32009KT P6SM SCT060
     FM070500 29005KT P6SM SCT150
     FM071400 27009G16KT P6SM FEW200=

USA.gov is the U.S. government's official web portal to all federal, state and local government web resources and services.